PADQ

Kodiak Airport

Kodiak, Alaska, USA
PADQ 171126Z 1712/1812 29011KT P6SM VCSH SCT025 BKN035
Issued Valid From Valid To
Dec-17 @ 11:26 UTC
(41 minutes ago)
Dec-17 @ 12:00 UTC
(7 minutes ago)
Dec-18 @ 12:00 UTC
(in 24 hours)
Dec-17 @ 12:00 to Dec-18 @ 12:00
PADQ 171126Z 1712/1812 29011KT P6SM VCSH SCT025 BKN035
Wind Visibility Clouds
290° at 11 knots Greater than 6 miles
  • Scattered at 2,500' AGL
  • Broken at 3,500' AGL
PADQ 171126Z 1712/1812 29011KT P6SM VCSH SCT025 BKN035
Issued Dec-17 @ 11:26 UTC
(41 minutes ago)
Valid From Dec-17 @ 12:00 UTC
(7 minutes ago)
Valid To Dec-18 @ 12:00 UTC
(in 24 hours)
Dec-17 @ 12:00 - Dec-18 @ 12:00
Wind Visibility
290° at 11 knots Greater than 6 miles
Clouds
  • Scattered at 2,500' AGL
  • Broken at 3,500' AGL